Etusivu
METAR-TAF:

METAR-TAF

Lentoasemat :

Jaipur, Intia

Leveyspiiri: 26-49N, Pituuspiiri: 075-48E, korkeus merenpinnasta: 385 m

Tämänhetkinen sää

Tämä raportti tehtiin 44 minuuttia sitten, kello 13.30 UTC
Tuuli 9 kn lännestä/luoteesta
Lämpötila 39°C
Kosteus 36%
Ilmanpaine 997 hPa
Näkyvyys: 5000 m
Muutamia pilviä 3000 ft:n korkeudessa
usvaa,

METAR: VIJP 191330Z 29009KT 5000 HZ FEW030 39/21 Q0997 NOSIG

Aika: 19:44 (14:14 UTC)

Sääennuste

Tämä raportti tehtiin 3 tuntia ja 14 minuuttia sitten, kello 11.00 UTC
Ennuste voimassa 19. päivästä klo 12 UTC - 19. päivään klo 21 UTC
Tuuli 4 kn lounaasta
Näkyvyys: 5000 m
Hajanaisia pilviä 3000 ft:n korkeudessa
usvaa
Tulossa
19. päivästä klo 15 UTC - 19. päivään klo 17 UTC
Näkyvyys: 4000 m
usvaa,

TAF: VIJP 191100Z 1912/1921 23004KT 5000 HZ SCT030 BECMG 1915/1917 4000 HZ NSC

Säähavainnot ja -ennusteet yli 4000 lentoasemalta (METAR- ja TAF-raportit).

Käytössä olevat sääasemat on merkitty karttaan keltaisilla ja punaisilla pisteillä.

Aseta hiiri pisteen päälle nähdäksesi sääaseman nimen.

Klikkaa sitten nähdäksesi säähavainnot ja -ennusteet.

Kartan vaihtaminen: klikkaa mustalla rastilla varustettuja vihreitä pisteitä, niin voit zoomata sisään; viivalla varustettua vihreää pistettä, niin voit zoomata ulos tai vihreitä nuolia, niin pääset viereisille kartoille.


METAR-TAF: